createdAt,value
2024-01-07T00:01:27.349Z,101912.81
2024-01-07T00:04:05.774Z,101921.53
2024-01-07T00:06:32.358Z,101918.97
2024-01-07T00:08:59.020Z,101923.28
2024-01-07T00:11:25.703Z,101928.50
2024-01-07T00:13:59.994Z,101921.59
2024-01-07T00:16:26.762Z,101929.41
2024-01-07T00:18:59.988Z,101925.84
2024-01-07T00:21:26.881Z,101933.66
2024-01-07T00:23:53.394Z,101937.31
2024-01-07T00:26:19.895Z,101933.84
2024-01-07T00:28:51.053Z,101935.66
2024-01-07T00:31:17.769Z,101938.34
2024-01-07T00:33:50.074Z,101934.84
2024-01-07T00:36:16.707Z,101941.97
2024-01-07T00:38:43.344Z,101942.81
2024-01-07T00:41:15.819Z,101945.31
2024-01-07T00:43:42.480Z,101949.66
2024-01-07T00:46:09.376Z,101947.94
2024-01-07T00:48:43.378Z,101945.28
2024-01-07T00:51:13.412Z,101963.78
2024-01-07T00:53:40.298Z,101960.31
2024-01-07T00:56:09.961Z,101955.00
2024-01-07T00:58:38.031Z,101957.59
2024-01-07T01:01:05.085Z,101964.66
2024-01-07T01:03:37.335Z,101962.94
2024-01-07T01:06:05.184Z,101963.78
2024-01-07T01:08:42.411Z,101967.22
2024-01-07T01:11:12.592Z,101966.38
2024-01-07T01:13:39.151Z,101973.34
2024-01-07T01:16:06.003Z,101968.94
2024-01-07T01:18:32.922Z,101973.31
2024-01-07T01:20:59.517Z,101976.00
2024-01-07T01:23:43.772Z,101976.00
2024-01-07T01:26:10.284Z,101982.16
2024-01-07T01:28:42.520Z,101982.22
2024-01-07T01:31:11.444Z,101989.34
2024-01-07T01:33:47.032Z,101981.41
2024-01-07T01:36:13.788Z,101986.63
2024-01-07T01:38:40.382Z,101990.94
2024-01-07T01:41:07.106Z,101987.53
2024-01-07T01:43:33.635Z,101997.28
2024-01-07T01:46:00.252Z,102005.13
2024-01-07T01:48:28.103Z,102004.16
2024-01-07T01:51:02.876Z,102009.41
2024-01-07T01:53:30.029Z,102014.59
2024-01-07T01:55:58.446Z,102006.69
2024-01-07T01:58:25.387Z,102019.84
2024-01-07T02:00:52.221Z,102024.28
2024-01-07T02:03:19.647Z,102026.00
2024-01-07T02:05:46.993Z,102031.16
2024-01-07T02:08:14.112Z,102039.13
2024-01-07T02:10:43.036Z,102033.13
2024-01-07T02:13:10.085Z,102036.63
2024-01-07T02:15:36.737Z,102042.75
2024-01-07T02:18:03.322Z,102041.06
2024-01-07T02:20:29.928Z,102037.56
2024-01-07T02:22:58.798Z,102043.69
2024-01-07T02:25:25.188Z,102040.09
2024-01-07T02:27:52.292Z,102045.34
2024-01-07T02:30:18.956Z,102048.81
2024-01-07T02:32:45.478Z,102051.44
2024-01-07T02:35:12.268Z,102054.13
2024-01-07T02:37:38.740Z,102053.28
2024-01-07T02:40:05.759Z,102052.44
2024-01-07T02:42:32.292Z,102053.22
2024-01-07T02:44:59.045Z,102053.25
2024-01-07T02:47:25.712Z,102059.41
2024-01-07T02:49:52.515Z,102054.16
2024-01-07T02:52:19.112Z,102055.91
2024-01-07T02:54:45.824Z,102059.34
2024-01-07T02:57:12.305Z,102067.19
2024-01-07T02:59:38.986Z,102063.75
2024-01-07T03:02:05.934Z,102063.75
2024-01-07T03:04:32.523Z,102066.38
2024-01-07T03:06:59.207Z,102065.53
2024-01-07T03:09:26.178Z,102077.88
2024-01-07T03:11:52.686Z,102072.63
2024-01-07T03:14:21.454Z,102076.94
2024-01-07T03:16:47.949Z,102076.06
2024-01-07T03:19:14.663Z,102070.81
2024-01-07T03:21:41.297Z,102082.19
2024-01-07T03:24:08.053Z,102084.78
2024-01-07T03:26:34.699Z,102086.59
2024-01-07T03:29:03.188Z,102086.69
2024-01-07T03:31:30.617Z,102088.44
2024-01-07T03:33:58.991Z,102091.88
2024-01-07T03:36:25.980Z,102090.22
2024-01-07T03:38:53.856Z,102097.22
2024-01-07T03:41:21.329Z,102085.00
2024-01-07T03:43:48.994Z,102097.22
2024-01-07T03:46:16.416Z,102101.66
2024-01-07T03:48:43.575Z,102100.78
2024-01-07T03:51:10.473Z,102106.88
2024-01-07T03:53:37.058Z,102106.88
2024-01-07T03:56:04.033Z,102108.63
2024-01-07T03:58:30.627Z,102113.84
2024-01-07T04:00:57.274Z,102117.38
2024-01-07T04:03:24.118Z,102114.81
2024-01-07T04:05:50.715Z,102125.25
2024-01-07T04:08:17.379Z,102123.53
2024-01-07T04:10:44.099Z,102128.00
2024-01-07T04:13:10.939Z,102127.19
2024-01-07T04:15:37.813Z,102132.34
2024-01-07T04:18:05.913Z,102132.28
2024-01-07T04:20:32.936Z,102140.97
2024-01-07T04:22:59.706Z,102136.69
2024-01-07T04:25:26.380Z,102142.81
2024-01-07T04:27:53.181Z,102141.06
2024-01-07T04:30:19.955Z,102143.69
2024-01-07T04:32:46.817Z,102149.78
2024-01-07T04:35:16.424Z,102148.88
2024-01-07T04:37:43.146Z,102151.50
2024-01-07T04:40:10.377Z,102155.03
2024-01-07T04:42:36.968Z,102161.09
2024-01-07T04:45:03.781Z,102170.69
2024-01-07T04:47:40.365Z,102173.31
2024-01-07T04:50:07.465Z,102175.09
2024-01-07T04:52:34.005Z,102173.34
2024-01-07T04:55:00.715Z,102179.41
2024-01-07T04:57:27.372Z,102184.69
2024-01-07T04:59:53.963Z,102184.78
2024-01-07T05:02:20.946Z,102184.78
2024-01-07T05:04:50.609Z,102190.06
2024-01-07T05:07:17.335Z,102193.50
2024-01-07T05:09:44.031Z,102194.41
2024-01-07T05:12:10.637Z,102195.22
2024-01-07T05:14:38.494Z,102201.25
2024-01-07T05:17:05.312Z,102209.16
2024-01-07T05:19:32.062Z,102210.91
2024-01-07T05:21:59.349Z,102203.91
2024-01-07T05:24:26.536Z,102214.34
2024-01-07T05:26:52.992Z,102212.56
2024-01-07T05:29:19.958Z,102219.50
2024-01-07T05:31:49.786Z,102215.16
2024-01-07T05:34:16.672Z,102219.59
2024-01-07T05:36:43.448Z,102228.38
2024-01-07T05:39:10.863Z,102229.22
2024-01-07T05:41:39.977Z,102228.41
2024-01-07T05:44:08.242Z,102228.38
2024-01-07T05:46:34.811Z,102236.19
2024-01-07T05:49:01.365Z,102246.69
2024-01-07T05:51:28.162Z,102248.44
2024-01-07T05:53:54.678Z,102245.81
2024-01-07T05:56:21.103Z,102247.53
2024-01-07T05:58:47.639Z,102257.25
2024-01-07T06:01:20.536Z,102257.25
2024-01-07T06:03:51.410Z,102258.09
2024-01-07T06:06:18.495Z,102260.72
2024-01-07T06:08:45.323Z,102265.16
2024-01-07T06:11:20.729Z,102274.72
2024-01-07T06:13:48.088Z,102272.13
2024-01-07T06:16:14.935Z,102279.09
2024-01-07T06:18:41.563Z,102278.25
2024-01-07T06:21:08.315Z,102284.34
2024-01-07T06:23:35.049Z,102290.44
2024-01-07T06:26:04.363Z,102295.72
2024-01-07T06:28:31.212Z,102301.91
2024-01-07T06:31:00.197Z,102295.81
2024-01-07T06:33:27.021Z,102304.56
2024-01-07T06:35:53.489Z,102309.75
2024-01-07T06:38:19.972Z,102308.88
2024-01-07T06:40:46.521Z,102317.63
2024-01-07T06:43:13.014Z,102320.22
2024-01-07T06:45:39.508Z,102320.28
2024-01-07T06:48:06.619Z,102331.66
2024-01-07T06:50:33.646Z,102325.53
2024-01-07T06:53:00.442Z,102331.69
2024-01-07T06:55:27.161Z,102334.28
2024-01-07T06:57:53.743Z,102335.13
2024-01-07T07:00:20.313Z,102341.25
2024-01-07T07:02:46.913Z,102347.34
2024-01-07T07:05:13.530Z,102352.59
2024-01-07T07:07:40.256Z,102357.91
2024-01-07T07:10:07.403Z,102362.22
2024-01-07T07:12:34.108Z,102361.34
2024-01-07T07:15:00.791Z,102359.59
2024-01-07T07:17:27.257Z,102373.63
2024-01-07T07:19:54.009Z,102368.44
2024-01-07T07:22:20.618Z,102375.41
2024-01-07T07:24:47.254Z,102378.78
2024-01-07T07:27:14.138Z,102382.31
2024-01-07T07:29:40.873Z,102378.84
2024-01-07T07:32:08.564Z,102388.47
2024-01-07T07:34:35.223Z,102396.34
2024-01-07T07:37:01.966Z,102392.81
2024-01-07T07:39:28.691Z,102391.97
2024-01-07T07:41:55.402Z,102397.25
2024-01-07T07:44:21.864Z,102406.03
2024-01-07T07:46:48.531Z,102412.13
2024-01-07T07:49:16.315Z,102419.97
2024-01-07T07:51:45.142Z,102426.97
2024-01-07T07:54:11.738Z,102428.75
2024-01-07T07:56:38.416Z,102434.88
2024-01-07T07:59:05.264Z,102439.31
2024-01-07T08:01:32.004Z,102443.72
2024-01-07T08:03:58.578Z,102439.34
2024-01-07T08:06:25.123Z,102447.19
2024-01-07T08:08:51.668Z,102448.03
2024-01-07T08:11:18.373Z,102456.78
2024-01-07T08:13:45.167Z,102458.53
2024-01-07T08:16:12.193Z,102468.06
2024-01-07T08:18:39.107Z,102472.44
2024-01-07T08:21:05.897Z,102466.34
2024-01-07T08:23:32.458Z,102472.41
2024-01-07T08:25:59.022Z,102474.16
2024-01-07T08:28:25.648Z,102471.59
2024-01-07T08:30:54.698Z,102472.50
2024-01-07T08:33:21.826Z,102476.84
2024-01-07T08:35:48.443Z,102473.41
2024-01-07T08:38:15.635Z,102481.31
2024-01-07T08:40:42.186Z,102484.78
2024-01-07T08:43:08.792Z,102495.25
2024-01-07T08:45:35.338Z,102500.50
2024-01-07T08:48:01.976Z,102499.66
2024-01-07T08:50:28.710Z,102503.16
2024-01-07T08:52:55.362Z,102509.28
2024-01-07T08:55:21.796Z,102511.03
2024-01-07T08:57:50.323Z,102513.66
2024-01-07T09:00:17.458Z,102516.28
2024-01-07T09:02:44.541Z,102523.31
2024-01-07T09:05:13.577Z,102519.78
2024-01-07T09:07:40.620Z,102523.28
2024-01-07T09:10:12.047Z,102532.88
2024-01-07T09:12:39.237Z,102535.47
2024-01-07T09:15:08.971Z,102540.72
2024-01-07T09:17:39.695Z,102539.88
2024-01-07T09:20:09.053Z,102540.72
2024-01-07T09:22:36.226Z,102552.97
2024-01-07T09:25:07.075Z,102558.19
2024-01-07T09:27:35.181Z,102561.69
2024-01-07T09:30:04.940Z,102566.94
2024-01-07T09:32:32.256Z,102572.19
2024-01-07T09:34:59.834Z,102576.53
2024-01-07T09:37:27.371Z,102577.41
2024-01-07T09:39:53.928Z,102579.06
2024-01-07T09:42:23.746Z,102588.63
2024-01-07T09:44:52.558Z,102586.09
2024-01-07T09:47:19.503Z,102587.88
2024-01-07T09:49:46.924Z,102600.97
2024-01-07T09:52:13.778Z,102594.88
2024-01-07T09:54:41.741Z,102596.59
2024-01-07T09:57:09.732Z,102607.09
2024-01-07T09:59:40.595Z,102607.97
2024-01-07T10:02:08.058Z,102611.47
2024-01-07T10:04:34.822Z,102603.59
2024-01-07T10:07:01.546Z,102600.97
2024-01-07T10:09:34.664Z,102606.25
2024-01-07T10:12:01.691Z,102608.00
2024-01-07T10:14:30.691Z,102616.72
2024-01-07T10:16:59.489Z,102609.75
2024-01-07T10:22:08.899Z,102617.59
2024-01-07T10:24:43.287Z,102621.97
2024-01-07T10:27:10.707Z,102617.59
2024-01-07T10:29:39.878Z,102625.44
2024-01-07T10:32:07.397Z,102639.44
2024-01-07T10:34:36.548Z,102643.81
2024-01-07T10:37:06.537Z,102649.91
2024-01-07T10:39:33.505Z,102652.53
2024-01-07T10:42:00.826Z,102654.25
2024-01-07T10:44:32.753Z,102665.59
2024-01-07T10:47:00.102Z,102667.38
2024-01-07T10:49:28.992Z,102662.13
2024-01-07T10:52:16.582Z,102668.22
2024-01-07T10:54:45.469Z,102668.22
2024-01-07T10:57:22.552Z,102672.53
2024-01-07T10:59:51.258Z,102667.31
2024-01-07T11:02:18.826Z,102662.94
2024-01-07T11:05:13.074Z,102658.59
2024-01-07T11:07:45.369Z,102660.34
2024-01-07T11:10:19.023Z,102669.06
2024-01-07T11:12:54.663Z,102658.59
2024-01-07T11:15:49.197Z,102669.94
2024-01-07T11:18:20.339Z,102655.97
2024-01-07T11:20:47.838Z,102661.22
2024-01-07T11:23:41.406Z,102661.22
2024-01-07T11:26:12.696Z,102665.53
2024-01-07T11:28:52.914Z,102654.16
2024-01-07T11:31:24.078Z,102662.03
2024-01-07T11:33:53.726Z,102669.00
2024-01-07T11:36:20.588Z,102666.34
2024-01-07T11:38:54.413Z,102669.84
2024-01-07T11:41:22.599Z,102667.22
2024-01-07T11:44:06.166Z,102668.13
2024-01-07T11:46:33.765Z,102670.72
2024-01-07T11:49:01.705Z,102670.75
2024-01-07T11:51:33.207Z,102667.25
2024-01-07T11:54:01.631Z,102668.16
2024-01-07T11:56:29.282Z,102661.16
2024-01-07T11:58:57.882Z,102673.38
2024-01-07T12:01:24.881Z,102664.63
2024-01-07T12:03:51.700Z,102661.97
2024-01-07T12:06:18.183Z,102661.06
2024-01-07T12:08:44.743Z,102663.66
2024-01-07T12:11:15.794Z,102661.88
2024-01-07T12:13:43.563Z,102662.75
2024-01-07T12:16:11.740Z,102667.13
2024-01-07T12:18:39.583Z,102672.38
2024-01-07T12:21:06.367Z,102674.13
2024-01-07T12:23:42.616Z,102677.63
2024-01-07T12:26:12.336Z,102675.88
2024-01-07T12:28:40.390Z,102676.81
2024-01-07T12:31:09.213Z,102677.72
2024-01-07T12:33:39.812Z,102672.41
2024-01-07T12:36:08.483Z,102679.41
2024-01-07T12:38:38.809Z,102686.38
2024-01-07T12:41:06.232Z,102701.19
2024-01-07T12:43:35.343Z,102679.22
2024-01-07T12:46:07.166Z,102686.22
2024-01-07T12:48:34.290Z,102695.75
2024-01-07T12:51:02.440Z,102698.25
2024-01-07T12:53:30.067Z,102706.00
2024-01-07T12:55:56.862Z,102703.38
2024-01-07T12:58:23.535Z,102709.63
2024-01-07T13:00:50.074Z,102708.00
2024-01-07T13:03:20.606Z,102705.41
2024-01-07T13:05:51.665Z,102710.63
2024-01-07T13:08:20.010Z,102704.41
2024-01-07T13:10:47.144Z,102712.19
2024-01-07T13:13:16.086Z,102707.72
2024-01-07T13:15:43.823Z,102713.84
2024-01-07T13:18:13.440Z,102706.06
2024-01-07T13:20:43.218Z,102711.41
2024-01-07T13:23:09.773Z,102722.00
2024-01-07T13:25:36.480Z,102713.28
2024-01-07T13:28:03.296Z,102719.44
2024-01-07T13:30:29.884Z,102718.56
2024-01-07T13:32:58.811Z,102716.78
2024-01-07T13:35:26.771Z,102731.69
2024-01-07T13:37:53.356Z,102724.72
2024-01-07T13:40:20.292Z,102733.44
2024-01-07T13:42:49.725Z,102736.06
2024-01-07T13:45:17.821Z,102746.53
2024-01-07T13:47:44.537Z,102748.34
2024-01-07T13:50:11.254Z,102744.84
2024-01-07T13:52:38.059Z,102749.28
2024-01-07T13:55:05.231Z,102755.44
2024-01-07T13:57:32.206Z,102760.72
2024-01-07T13:59:58.772Z,102758.97
2024-01-07T14:02:25.454Z,102765.09
2024-01-07T14:04:52.998Z,102764.22
2024-01-07T14:07:22.384Z,102764.25
2024-01-07T14:09:49.049Z,102781.69
2024-01-07T14:12:15.888Z,102766.84
2024-01-07T14:14:42.433Z,102773.84
2024-01-07T14:17:09.088Z,102787.81
2024-01-07T14:19:35.705Z,102784.31
2024-01-07T14:22:02.497Z,102798.31
2024-01-07T14:24:28.927Z,102796.56
2024-01-07T14:26:57.592Z,102800.91
2024-01-07T14:29:25.762Z,102809.66
2024-01-07T14:31:52.540Z,102809.66
2024-01-07T14:34:19.314Z,102821.03
2024-01-07T14:36:46.157Z,102823.66
2024-01-07T14:39:15.162Z,102827.16
2024-01-07T14:41:41.944Z,102823.66
2024-01-07T14:44:11.403Z,102822.81
2024-01-07T14:46:39.739Z,102826.28
2024-01-07T14:49:06.525Z,102829.78
2024-01-07T14:51:33.443Z,102832.38
2024-01-07T14:54:01.190Z,102839.38
2024-01-07T14:56:27.814Z,102844.66
2024-01-07T14:58:55.368Z,102844.63
2024-01-07T15:01:22.749Z,102842.03
2024-01-07T15:03:49.371Z,102842.88
2024-01-07T15:06:16.626Z,102847.28
2024-01-07T15:08:46.460Z,102851.63
2024-01-07T15:11:13.128Z,102853.38
2024-01-07T15:13:41.334Z,102853.38
2024-01-07T15:16:08.268Z,102850.75
2024-01-07T15:18:38.377Z,102853.38
2024-01-07T15:21:10.116Z,102858.63
2024-01-07T15:23:36.718Z,102873.44
2024-01-07T15:26:03.297Z,102868.22
2024-01-07T15:28:29.947Z,102878.69
2024-01-07T15:30:57.245Z,102879.56
2024-01-07T15:33:24.092Z,102883.06
2024-01-07T15:35:50.590Z,102883.94
2024-01-07T15:38:17.125Z,102882.19
2024-01-07T15:40:43.720Z,102888.31
2024-01-07T15:43:13.346Z,102889.16
2024-01-07T15:45:40.045Z,102890.91
2024-01-07T15:48:06.827Z,102899.63
2024-01-07T15:50:33.282Z,102906.66
2024-01-07T15:53:00.372Z,102903.13
2024-01-07T15:55:27.754Z,102912.75
2024-01-07T15:57:54.718Z,102907.47
2024-01-07T16:00:21.233Z,102914.47
2024-01-07T16:02:47.840Z,102918.00
2024-01-07T16:05:14.461Z,102927.59
2024-01-07T16:07:40.986Z,102923.22
2024-01-07T16:10:07.985Z,102918.88
2024-01-07T16:12:34.559Z,102929.34
2024-01-07T16:15:01.366Z,102928.47
2024-01-07T16:17:28.305Z,102933.72
2024-01-07T16:19:54.917Z,102933.72
2024-01-07T16:22:21.608Z,102940.69
2024-01-07T16:24:48.137Z,102944.19
2024-01-07T16:27:15.796Z,102950.28
2024-01-07T16:29:45.535Z,102946.78
2024-01-07T16:32:14.678Z,102956.38
2024-01-07T16:34:41.824Z,102955.50
2024-01-07T16:37:08.663Z,102958.97
2024-01-07T16:39:35.281Z,102957.25
2024-01-07T16:42:01.853Z,102965.09
2024-01-07T16:44:28.475Z,102967.69
2024-01-07T16:46:55.116Z,102970.31
2024-01-07T16:51:51.558Z,102975.53
2024-01-07T16:54:18.313Z,102979.91
2024-01-07T16:56:44.875Z,102986.03
2024-01-07T16:59:11.800Z,102987.72
2024-01-07T17:01:38.319Z,102983.38
2024-01-07T17:04:05.125Z,102991.22
2024-01-07T17:06:33.523Z,102987.72
2024-01-07T17:09:00.151Z,102985.97
2024-01-07T17:11:26.788Z,102992.97
2024-01-07T17:13:54.492Z,102991.19
2024-01-07T17:16:22.332Z,102995.56
2024-01-07T17:18:49.398Z,103004.31
2024-01-07T17:21:25.302Z,103001.66
2024-01-07T17:23:52.922Z,103010.38
2024-01-07T17:26:20.337Z,103013.00
2024-01-07T17:28:47.365Z,103014.75
2024-01-07T17:31:14.386Z,103018.22
2024-01-07T17:33:41.204Z,103013.84
2024-01-07T17:36:08.031Z,103018.19
2024-01-07T17:38:34.621Z,103022.53
2024-01-07T17:41:01.210Z,103020.78
2024-01-07T17:43:27.754Z,103028.59
2024-01-07T17:45:55.573Z,103028.63
2024-01-07T17:48:22.417Z,103040.88
2024-01-07T17:50:49.602Z,103028.59
2024-01-07T17:53:16.534Z,103033.81
2024-01-07T17:55:43.300Z,103047.81
2024-01-07T17:58:10.660Z,103039.09
2024-01-07T18:00:37.373Z,103046.03
2024-01-07T18:03:07.589Z,103049.50
2024-01-07T18:05:38.162Z,103053.84
2024-01-07T18:08:05.170Z,103050.34
2024-01-07T18:10:33.401Z,103056.44
2024-01-07T18:12:59.957Z,103061.72
2024-01-07T18:15:26.918Z,103064.31
2024-01-07T18:17:53.577Z,103068.66
2024-01-07T18:20:21.734Z,103067.75
2024-01-07T18:22:49.337Z,103068.66
2024-01-07T18:25:16.177Z,103070.38
2024-01-07T18:27:43.852Z,103069.47
2024-01-07T18:30:11.135Z,103083.47
2024-01-07T18:32:39.218Z,103089.56
2024-01-07T18:35:06.265Z,103091.31
2024-01-07T18:37:32.896Z,103092.09
2024-01-07T18:40:01.491Z,103099.97
2024-01-07T18:42:31.974Z,103096.47
2024-01-07T18:44:58.971Z,103101.72
2024-01-07T18:47:28.136Z,103106.88
2024-01-07T18:50:06.200Z,103109.50
2024-01-07T18:52:35.248Z,103105.16
2024-01-07T18:55:03.787Z,103108.66
2024-01-07T18:57:30.579Z,103112.13
2024-01-07T18:59:57.036Z,103112.97
2024-01-07T19:02:23.750Z,103121.66
2024-01-07T19:04:50.564Z,103116.41
2024-01-07T19:07:17.137Z,103120.78
2024-01-07T19:09:43.626Z,103120.81
2024-01-07T19:12:12.397Z,103121.63
2024-01-07T19:14:43.351Z,103117.34
2024-01-07T19:17:10.931Z,103124.31
2024-01-07T19:19:37.592Z,103126.91
2024-01-07T19:22:09.156Z,103127.72
2024-01-07T19:24:38.990Z,103125.97
2024-01-07T19:27:06.358Z,103133.81
2024-01-07T19:29:32.990Z,103134.69
2024-01-07T19:31:59.541Z,103138.16
2024-01-07T19:34:27.112Z,103132.88
2024-01-07T19:36:55.096Z,103131.16
2024-01-07T19:39:21.857Z,103134.63
2024-01-07T19:41:48.329Z,103132.84
2024-01-07T19:44:15.774Z,103135.47
2024-01-07T19:46:43.596Z,103130.25
2024-01-07T19:49:10.933Z,103131.09
2024-01-07T19:51:39.241Z,103138.00
2024-01-07T19:54:05.937Z,103132.78
2024-01-07T19:56:32.988Z,103134.53
2024-01-07T19:58:59.454Z,103138.00
2024-01-07T20:01:26.133Z,103138.00
2024-01-07T20:03:52.726Z,103140.63
2024-01-07T20:06:21.230Z,103138.84
2024-01-07T20:08:52.259Z,103142.34
2024-01-07T20:11:19.717Z,103132.72
2024-01-07T20:13:48.510Z,103141.38
2024-01-07T20:16:22.530Z,103144.84
2024-01-07T20:18:52.920Z,103152.69
2024-01-07T20:21:25.056Z,103153.56
2024-01-07T20:23:56.252Z,103144.81
2024-01-07T20:26:26.035Z,103150.91
2024-01-07T20:28:52.714Z,103148.31
2024-01-07T20:31:19.306Z,103148.31
2024-01-07T20:34:16.586Z,103150.00
2024-01-07T20:36:35.169Z,103149.13
2024-01-07T20:39:02.282Z,103147.41
2024-01-07T20:41:29.654Z,103153.50
2024-01-07T20:43:56.321Z,103158.69
2024-01-07T20:46:23.007Z,103156.91
2024-01-07T20:48:49.846Z,103158.56
2024-01-07T20:51:16.482Z,103161.16
2024-01-07T20:53:45.823Z,103166.41
2024-01-07T20:56:12.683Z,103163.78
2024-01-07T20:58:39.453Z,103164.66
2024-01-07T21:01:06.206Z,103166.38
2024-01-07T21:03:35.029Z,103163.75
2024-01-07T21:06:02.537Z,103171.56
2024-01-07T21:08:34.685Z,103160.16
2024-01-07T21:11:03.699Z,103157.50
2024-01-07T21:13:30.357Z,103168.78
2024-01-07T21:15:56.860Z,103166.13
2024-01-07T21:18:23.335Z,103165.22
2024-01-07T21:20:50.756Z,103164.41
2024-01-07T21:23:18.906Z,103172.16
2024-01-07T21:25:46.514Z,103172.16
2024-01-07T21:28:16.908Z,103163.44
2024-01-07T21:30:45.602Z,103170.38
2024-01-07T21:33:12.391Z,103169.50
2024-01-07T21:35:39.221Z,103178.22
2024-01-07T21:38:05.893Z,103177.34
2024-01-07T21:40:32.415Z,103177.34
2024-01-07T21:42:58.864Z,103175.59
2024-01-07T21:45:25.344Z,103174.66
2024-01-07T21:47:52.081Z,103180.75
2024-01-07T21:50:18.740Z,103191.19
2024-01-07T21:52:58.554Z,103197.25
2024-01-07T21:55:25.172Z,103199.00
2024-01-07T21:57:51.727Z,103199.00
2024-01-07T22:00:18.999Z,103208.53
2024-01-07T22:02:45.620Z,103203.25
2024-01-07T22:05:12.954Z,103202.38
2024-01-07T22:07:39.891Z,103217.19
2024-01-07T22:10:08.055Z,103212.84
2024-01-07T22:12:34.560Z,103212.84
2024-01-07T22:15:01.312Z,103215.44
2024-01-07T22:17:28.274Z,103220.72
2024-01-07T22:19:55.105Z,103221.63
2024-01-07T22:22:21.624Z,103219.84
2024-01-07T22:24:48.203Z,103218.94
2024-01-07T22:27:14.858Z,103217.22
2024-01-07T22:29:41.496Z,103214.63
2024-01-07T22:32:08.075Z,103221.59
2024-01-07T22:34:34.821Z,103217.31
2024-01-07T22:37:01.262Z,103212.09
2024-01-07T22:39:29.087Z,103218.19
2024-01-07T22:41:55.810Z,103210.34
2024-01-07T22:44:22.299Z,103217.28
2024-01-07T22:46:50.687Z,103215.50
2024-01-07T22:49:17.634Z,103217.22
2024-01-07T22:51:45.685Z,103218.94
2024-01-07T22:54:12.981Z,103204.16
2024-01-07T22:56:43.838Z,103211.13
2024-01-07T22:59:12.437Z,103217.22
2024-01-07T23:01:40.384Z,103222.47
2024-01-07T23:04:11.965Z,103218.13
2024-01-07T23:06:40.522Z,103212.06
2024-01-07T23:09:08.631Z,103216.47
2024-01-07T23:11:36.020Z,103219.09
2024-01-07T23:14:05.075Z,103226.06
2024-01-07T23:16:31.925Z,103222.53
2024-01-07T23:18:58.644Z,103233.84
2024-01-07T23:21:25.610Z,103233.78
2024-01-07T23:23:52.778Z,103234.56
2024-01-07T23:26:19.550Z,103233.69
2024-01-07T23:28:46.486Z,103242.34
2024-01-07T23:31:13.876Z,103230.97
2024-01-07T23:33:40.737Z,103231.81
2024-01-07T23:36:08.885Z,103237.00
2024-01-07T23:38:36.667Z,103237.94
2024-01-07T23:41:07.076Z,103236.25
2024-01-07T23:43:34.465Z,103231.06
2024-01-07T23:46:01.637Z,103232.78
2024-01-07T23:48:29.848Z,103240.59
2024-01-07T23:50:56.630Z,103234.56
2024-01-07T23:53:23.630Z,103233.69
2024-01-07T23:55:50.339Z,103244.09
2024-01-07T23:58:17.077Z,103242.34
